createdAt,value
2022-10-13T00:00:50.568Z,0
2022-10-13T00:01:50.482Z,0
2022-10-13T00:02:50.903Z,0
2022-10-13T00:03:50.469Z,0
2022-10-13T00:04:50.490Z,0
2022-10-13T00:05:50.434Z,0
2022-10-13T00:06:50.500Z,0
2022-10-13T00:07:50.871Z,0
2022-10-13T00:08:50.481Z,0
2022-10-13T00:09:53.512Z,0
2022-10-13T00:10:50.810Z,0
2022-10-13T00:11:50.576Z,0
2022-10-13T00:12:50.792Z,0
2022-10-13T00:13:50.572Z,0
2022-10-13T00:14:50.485Z,0
2022-10-13T00:15:50.475Z,0
2022-10-13T00:16:50.464Z,0
2022-10-13T00:17:50.819Z,0
2022-10-13T00:18:50.399Z,0
2022-10-13T00:19:50.465Z,0
2022-10-13T00:20:53.425Z,0
2022-10-13T00:21:50.391Z,0
2022-10-13T00:22:50.789Z,0
2022-10-13T00:23:50.481Z,0
2022-10-13T00:24:50.501Z,0
2022-10-13T00:25:50.823Z,0
2022-10-13T00:26:50.503Z,0
2022-10-13T00:27:50.826Z,0
2022-10-13T00:28:52.765Z,0
2022-10-13T00:29:50.477Z,0
2022-10-13T00:30:50.403Z,0
2022-10-13T00:31:53.447Z,0
2022-10-13T00:32:50.751Z,0
2022-10-13T00:33:50.528Z,0
2022-10-13T00:34:50.484Z,0
2022-10-13T00:35:50.592Z,0
2022-10-13T00:36:50.592Z,0
2022-10-13T00:37:50.765Z,0
2022-10-13T00:38:50.395Z,0
2022-10-13T00:39:50.383Z,0
2022-10-13T00:40:53.235Z,0
2022-10-13T00:41:50.503Z,0
2022-10-13T00:42:56.437Z,0
2022-10-13T00:43:50.452Z,0
2022-10-13T00:44:50.399Z,0
2022-10-13T00:45:50.378Z,0
2022-10-13T00:46:50.499Z,0
2022-10-13T00:47:50.749Z,0
2022-10-13T00:48:50.379Z,0
2022-10-13T00:49:50.538Z,0
2022-10-13T00:50:50.561Z,0
2022-10-13T00:51:50.437Z,0
2022-10-13T00:52:50.825Z,0
2022-10-13T00:53:50.509Z,0
2022-10-13T00:54:50.391Z,0
2022-10-13T00:55:50.487Z,0
2022-10-13T00:56:50.823Z,0
2022-10-13T00:57:50.792Z,0
2022-10-13T00:58:53.565Z,0
2022-10-13T00:59:50.627Z,0
2022-10-13T01:00:50.610Z,0
2022-10-13T01:01:50.495Z,0
2022-10-13T01:02:50.865Z,0
2022-10-13T01:03:50.454Z,0
2022-10-13T01:04:50.386Z,0
2022-10-13T01:05:50.400Z,0
2022-10-13T01:06:50.402Z,0
2022-10-13T01:07:50.754Z,0
2022-10-13T01:08:50.552Z,0
2022-10-13T01:09:53.429Z,0
2022-10-13T01:10:50.510Z,0
2022-10-13T01:11:50.821Z,0
2022-10-13T01:12:50.750Z,0
2022-10-13T01:13:50.472Z,0
2022-10-13T01:14:50.419Z,0
2022-10-13T01:15:50.409Z,0
2022-10-13T01:16:50.418Z,0
2022-10-13T01:17:50.870Z,0
2022-10-13T01:18:50.574Z,0
2022-10-13T01:19:50.530Z,0
2022-10-13T01:20:53.544Z,0
2022-10-13T01:21:50.610Z,0
2022-10-13T01:22:50.873Z,0
2022-10-13T01:23:50.462Z,0
2022-10-13T01:24:50.393Z,0
2022-10-13T01:25:50.370Z,0
2022-10-13T01:26:50.746Z,0
2022-10-13T01:27:50.919Z,0
2022-10-13T01:28:50.536Z,0
2022-10-13T01:29:50.438Z,0
2022-10-13T01:30:50.432Z,0
2022-10-13T01:31:53.462Z,0
2022-10-13T01:32:50.778Z,0
2022-10-13T01:33:50.387Z,0
2022-10-13T01:34:50.532Z,0
2022-10-13T01:35:50.527Z,0
2022-10-13T01:36:50.482Z,0
2022-10-13T01:37:50.761Z,0
2022-10-13T01:38:50.388Z,0
2022-10-13T01:39:50.375Z,0
2022-10-13T01:40:50.509Z,0
2022-10-13T01:41:50.863Z,0
2022-10-13T01:42:56.484Z,0
2022-10-13T01:43:50.492Z,0
2022-10-13T01:44:50.537Z,0
2022-10-13T01:45:50.463Z,0
2022-10-13T01:46:50.508Z,0
2022-10-13T01:47:50.755Z,0
2022-10-13T01:48:50.387Z,0
2022-10-13T01:49:50.379Z,0
2022-10-13T01:50:50.380Z,0
2022-10-13T01:51:50.398Z,0
2022-10-13T01:52:50.830Z,0
2022-10-13T01:53:53.486Z,0
2022-10-13T01:54:50.617Z,0
2022-10-13T01:55:50.560Z,0
2022-10-13T01:56:50.874Z,0
2022-10-13T01:57:50.750Z,0
2022-10-13T01:58:50.571Z,0
2022-10-13T01:59:50.407Z,0
2022-10-13T02:00:50.497Z,0
2022-10-13T02:01:50.574Z,0
2022-10-13T02:02:51.047Z,0
2022-10-13T02:03:50.518Z,0
2022-10-13T02:04:53.549Z,0
2022-10-13T02:05:50.573Z,0
2022-10-13T02:06:50.540Z,0
2022-10-13T02:07:50.752Z,0
2022-10-13T02:08:50.600Z,0
2022-10-13T02:09:50.515Z,0
2022-10-13T02:10:50.398Z,0
2022-10-13T02:11:50.751Z,0
2022-10-13T02:12:50.748Z,0
2022-10-13T02:13:50.395Z,0
2022-10-13T02:14:50.398Z,0
2022-10-13T02:15:53.386Z,0
2022-10-13T02:16:50.564Z,0
2022-10-13T02:17:50.790Z,0
2022-10-13T02:18:50.475Z,0
2022-10-13T02:19:50.500Z,0
2022-10-13T02:20:50.501Z,0
2022-10-13T02:21:50.496Z,0
2022-10-13T02:22:50.864Z,0
2022-10-13T02:23:50.462Z,0
2022-10-13T02:24:50.380Z,0
2022-10-13T02:25:50.577Z,0
2022-10-13T02:26:56.523Z,0
2022-10-13T02:27:50.752Z,0
2022-10-13T02:28:50.625Z,0
2022-10-13T02:29:50.536Z,0
2022-10-13T02:30:50.545Z,0
2022-10-13T02:31:50.534Z,0
2022-10-13T02:32:50.775Z,0
2022-10-13T02:33:50.399Z,0
2022-10-13T02:34:50.383Z,0
2022-10-13T02:35:50.472Z,0
2022-10-13T02:36:50.391Z,0
2022-10-13T02:37:53.840Z,0
2022-10-13T02:38:50.461Z,0
2022-10-13T02:39:50.408Z,0
2022-10-13T02:40:50.531Z,0
2022-10-13T02:41:50.757Z,0
2022-10-13T02:42:50.818Z,0
2022-10-13T02:43:50.514Z,0
2022-10-13T02:44:50.553Z,0
2022-10-13T02:45:50.568Z,0
2022-10-13T02:46:50.506Z,0
2022-10-13T02:47:50.794Z,0
2022-10-13T02:48:53.408Z,0
2022-10-13T02:49:50.595Z,0
2022-10-13T02:50:50.595Z,0
2022-10-13T02:51:50.616Z,0
2022-10-13T02:52:50.751Z,0
2022-10-13T02:53:50.471Z,0
2022-10-13T02:54:50.377Z,0
2022-10-13T02:55:50.463Z,0
2022-10-13T02:56:50.784Z,0
2022-10-13T02:57:50.857Z,0
2022-10-13T02:58:50.380Z,0
2022-10-13T02:59:53.469Z,0
2022-10-13T03:00:50.504Z,0
2022-10-13T03:01:50.399Z,0
2022-10-13T03:02:50.822Z,0
2022-10-13T03:03:50.579Z,0
2022-10-13T03:04:50.538Z,0
2022-10-13T03:05:50.504Z,0
2022-10-13T03:06:50.500Z,0
2022-10-13T03:07:50.797Z,0
2022-10-13T03:08:50.509Z,0
2022-10-13T03:09:50.391Z,0
2022-10-13T03:10:53.457Z,0
2022-10-13T03:11:50.767Z,0
2022-10-13T03:12:50.756Z,0
2022-10-13T03:13:50.594Z,0
2022-10-13T03:14:50.579Z,0
2022-10-13T03:15:50.518Z,0
2022-10-13T03:16:50.401Z,0
2022-10-13T03:17:50.779Z,0
2022-10-13T03:18:50.499Z,0
2022-10-13T03:19:50.410Z,0
2022-10-13T03:20:50.518Z,0
2022-10-13T03:21:53.403Z,0
2022-10-13T03:22:50.881Z,0
2022-10-13T03:23:50.474Z,0
2022-10-13T03:24:50.405Z,0
2022-10-13T03:25:50.537Z,0
2022-10-13T03:26:50.755Z,0
2022-10-13T03:27:50.744Z,0
2022-10-13T03:28:50.597Z,0
2022-10-13T03:29:50.461Z,0
2022-10-13T03:30:50.413Z,0
2022-10-13T03:31:50.387Z,0
2022-10-13T03:32:56.488Z,0
2022-10-13T03:33:50.470Z,0
2022-10-13T03:34:50.501Z,0
2022-10-13T03:35:50.503Z,0
2022-10-13T03:36:50.584Z,0
2022-10-13T03:37:50.817Z,0
2022-10-13T03:38:50.378Z,0
2022-10-13T03:39:50.557Z,0
2022-10-13T03:40:50.383Z,0
2022-10-13T03:41:50.751Z,0
2022-10-13T03:42:50.918Z,0
2022-10-13T03:43:53.459Z,0
2022-10-13T03:44:55.928Z,0
2022-10-13T03:45:50.392Z,0
2022-10-13T03:46:50.468Z,0
2022-10-13T03:47:51.597Z,0
2022-10-13T03:48:50.578Z,0
2022-10-13T03:49:50.466Z,0
2022-10-13T03:50:50.524Z,0
2022-10-13T03:51:50.578Z,0
2022-10-13T03:52:50.773Z,0
2022-10-13T03:53:50.491Z,0
2022-10-13T03:54:53.507Z,0
2022-10-13T03:55:50.810Z,0
2022-10-13T03:56:50.812Z,0
2022-10-13T03:57:50.583Z,0
2022-10-13T03:58:50.495Z,0
2022-10-13T03:59:50.568Z,0
2022-10-13T04:00:50.761Z,0
2022-10-13T04:01:50.521Z,0
2022-10-13T04:02:50.579Z,0
2022-10-13T04:03:50.401Z,0
2022-10-13T04:04:50.401Z,0
2022-10-13T04:05:56.412Z,0
2022-10-13T04:06:50.478Z,0
2022-10-13T04:07:50.515Z,0
2022-10-13T04:08:50.406Z,0
2022-10-13T04:09:50.835Z,0
2022-10-13T04:10:50.761Z,0
2022-10-13T04:11:50.506Z,0
2022-10-13T04:12:50.404Z,0
2022-10-13T04:13:50.518Z,0
2022-10-13T04:14:50.549Z,0
2022-10-13T04:15:50.877Z,0
2022-10-13T04:16:53.488Z,0
2022-10-13T04:17:50.589Z,0
2022-10-13T04:18:50.469Z,0
2022-10-13T04:19:50.479Z,0
2022-10-13T04:20:50.801Z,0
2022-10-13T04:21:50.574Z,0
2022-10-13T04:22:50.498Z,0
2022-10-13T04:23:50.381Z,0
2022-10-13T04:24:51.018Z,0
2022-10-13T04:25:50.761Z,0
2022-10-13T04:26:50.368Z,0
2022-10-13T04:27:53.382Z,0
2022-10-13T04:28:50.557Z,0
2022-10-13T04:29:50.395Z,0
2022-10-13T04:30:50.761Z,0
2022-10-13T04:31:50.482Z,0
2022-10-13T04:32:50.494Z,0
2022-10-13T04:33:50.514Z,0
2022-10-13T04:34:50.424Z,0
2022-10-13T04:35:50.833Z,0
2022-10-13T04:36:50.491Z,0
2022-10-13T04:37:50.398Z,0
2022-10-13T04:38:50.525Z,0
2022-10-13T04:39:50.834Z,0
2022-10-13T04:40:51.613Z,0
2022-10-13T04:41:50.567Z,0
2022-10-13T04:42:50.457Z,0
2022-10-13T04:43:53.436Z,0
2022-10-13T04:44:50.512Z,0
2022-10-13T04:45:50.828Z,0
2022-10-13T04:46:50.398Z,0
2022-10-13T04:47:50.379Z,0
2022-10-13T04:48:50.390Z,0
2022-10-13T04:49:50.405Z,0
2022-10-13T04:50:50.807Z,0
2022-10-13T04:51:50.482Z,0
2022-10-13T04:52:50.379Z,0
2022-10-13T04:53:50.389Z,0
2022-10-13T04:54:56.457Z,0
2022-10-13T04:55:50.765Z,0
2022-10-13T04:56:50.604Z,0
2022-10-13T04:57:50.577Z,0
2022-10-13T04:58:50.510Z,0
2022-10-13T04:59:50.554Z,0
2022-10-13T05:00:50.886Z,0
2022-10-13T05:01:50.469Z,0
2022-10-13T05:02:50.458Z,0
2022-10-13T05:03:50.497Z,0
2022-10-13T05:04:50.503Z,0
2022-10-13T05:05:58.009Z,0
2022-10-13T05:07:15.858Z,0
2022-10-13T05:07:50.605Z,0
2022-10-13T05:08:50.402Z,0
2022-10-13T05:09:50.845Z,0
2022-10-13T05:10:50.765Z,0
2022-10-13T05:11:50.388Z,0
2022-10-13T05:12:50.400Z,0
2022-10-13T05:13:50.397Z,0
2022-10-13T05:14:50.399Z,0
2022-10-13T05:15:50.871Z,0
2022-10-13T05:16:53.338Z,0
2022-10-13T05:17:50.394Z,0
2022-10-13T05:18:50.510Z,0
2022-10-13T05:19:50.466Z,0
2022-10-13T05:20:50.841Z,0
2022-10-13T05:21:50.499Z,0
2022-10-13T05:22:50.425Z,0
2022-10-13T05:23:50.404Z,0
2022-10-13T05:24:50.836Z,0
2022-10-13T05:25:50.768Z,0
2022-10-13T05:26:50.600Z,0
2022-10-13T05:27:53.514Z,0
2022-10-13T05:28:50.497Z,0
2022-10-13T05:29:50.539Z,0
2022-10-13T05:30:50.761Z,0
2022-10-13T05:31:50.612Z,0
2022-10-13T05:32:53.894Z,0
2022-10-13T05:33:50.452Z,0
2022-10-13T05:34:50.378Z,0
2022-10-13T05:35:50.806Z,0
2022-10-13T05:36:50.396Z,0
2022-10-13T05:37:50.568Z,0
2022-10-13T05:38:50.396Z,0
2022-10-13T05:39:50.831Z,0
2022-10-13T05:40:50.808Z,0
2022-10-13T05:41:50.574Z,0
2022-10-13T05:42:50.567Z,0
2022-10-13T05:43:53.415Z,0
2022-10-13T05:44:50.569Z,0
2022-10-13T05:45:50.834Z,0
2022-10-13T05:46:50.601Z,0
2022-10-13T05:47:50.493Z,0
2022-10-13T05:48:50.400Z,0
2022-10-13T05:49:50.429Z,0
2022-10-13T05:50:50.834Z,0
2022-10-13T05:51:50.573Z,0
2022-10-13T05:52:50.531Z,0
2022-10-13T05:53:54.099Z,0
2022-10-13T05:54:56.465Z,0
2022-10-13T05:55:50.880Z,0
2022-10-13T05:56:50.384Z,0
2022-10-13T05:57:50.392Z,0
2022-10-13T05:58:50.379Z,0
2022-10-13T05:59:50.493Z,0
2022-10-13T06:00:50.771Z,0
2022-10-13T06:01:50.404Z,0
2022-10-13T06:02:50.547Z,0
2022-10-13T06:03:50.401Z,0
2022-10-13T06:04:50.482Z,0
2022-10-13T06:05:56.400Z,0
2022-10-13T06:06:50.561Z,0
2022-10-13T06:07:50.505Z,0
2022-10-13T06:08:50.449Z,0
2022-10-13T06:09:50.842Z,0
2022-10-13T06:10:50.815Z,0
2022-10-13T06:11:50.388Z,0
2022-10-13T06:12:50.480Z,0
2022-10-13T06:13:50.559Z,0
2022-10-13T06:14:50.500Z,0
2022-10-13T06:15:50.840Z,0
2022-10-13T06:16:53.566Z,0
2022-10-13T06:17:50.502Z,0
2022-10-13T06:18:50.405Z,0
2022-10-13T06:19:50.492Z,0
2022-10-13T06:20:50.792Z,0
2022-10-13T06:21:50.487Z,0
2022-10-13T06:22:50.380Z,0
2022-10-13T06:23:50.381Z,0
2022-10-13T06:24:50.841Z,0
2022-10-13T06:25:50.766Z,0
2022-10-13T06:26:50.528Z,0
2022-10-13T06:27:53.500Z,0
2022-10-13T06:28:53.398Z,0
2022-10-13T06:29:50.469Z,0
2022-10-13T06:30:50.834Z,0
2022-10-13T06:31:50.611Z,0
2022-10-13T06:32:50.581Z,0
2022-10-13T06:33:50.394Z,0
2022-10-13T06:34:50.495Z,0
2022-10-13T06:35:50.796Z,0
2022-10-13T06:36:50.474Z,0
2022-10-13T06:37:50.506Z,0
2022-10-13T06:38:50.400Z,0
2022-10-13T06:39:50.839Z,0
2022-10-13T06:40:50.766Z,0
2022-10-13T06:41:50.395Z,0
2022-10-13T06:42:50.357Z,0
2022-10-13T06:43:53.506Z,0
2022-10-13T06:44:50.398Z,0
2022-10-13T06:45:50.808Z,0
2022-10-13T06:46:50.510Z,0
2022-10-13T06:47:50.516Z,0
2022-10-13T06:48:50.509Z,0
2022-10-13T06:49:50.530Z,0
2022-10-13T06:50:50.842Z,0
2022-10-13T06:51:50.611Z,0
2022-10-13T06:52:50.592Z,0
2022-10-13T06:53:50.411Z,0
2022-10-13T06:54:56.518Z,0
2022-10-13T06:55:52.583Z,0
2022-10-13T06:56:50.554Z,0
2022-10-13T06:57:50.529Z,0
2022-10-13T06:58:50.569Z,0
2022-10-13T06:59:50.606Z,0
2022-10-13T07:00:50.814Z,0
2022-10-13T07:01:50.397Z,0
2022-10-13T07:02:50.396Z,0
2022-10-13T07:03:50.504Z,0
2022-10-13T07:04:50.388Z,0
2022-10-13T07:05:56.486Z,0
2022-10-13T07:06:50.477Z,0
2022-10-13T07:07:50.394Z,88.9912109375
2022-10-13T07:08:50.471Z,88.7490234375
2022-10-13T07:09:50.883Z,88.447265625
2022-10-13T07:10:50.767Z,88.4921875
2022-10-13T07:11:50.511Z,88.7275390625
2022-10-13T07:12:50.484Z,89.0556640625
2022-10-13T07:13:50.608Z,89.220703125
2022-10-13T07:14:50.477Z,88.98828125
2022-10-13T07:15:50.841Z,88.9228515625
2022-10-13T07:16:53.449Z,88.7763671875
2022-10-13T07:17:50.558Z,88.86328125
2022-10-13T07:18:50.468Z,88.9140625
2022-10-13T07:19:51.362Z,88.904296875
2022-10-13T07:20:50.771Z,88.98828125
2022-10-13T07:21:50.492Z,0
2022-10-13T07:22:50.523Z,88.978515625
2022-10-13T07:23:50.396Z,88.7265625
2022-10-13T07:24:50.760Z,88.162109375
2022-10-13T07:25:50.765Z,87.7119140625
2022-10-13T07:26:50.388Z,87.015625
2022-10-13T07:27:53.364Z,86.3447265625
2022-10-13T07:28:50.522Z,85.5703125
2022-10-13T07:29:50.370Z,84.61328125
2022-10-13T07:30:50.945Z,84.091796875
2022-10-13T07:31:50.467Z,83.470703125
2022-10-13T07:32:50.510Z,82.806640625
2022-10-13T07:33:50.500Z,82.3984375
2022-10-13T07:34:50.504Z,81.4560546875
2022-10-13T07:35:50.849Z,80.6923828125
2022-10-13T07:36:50.571Z,80.138671875
2022-10-13T07:37:50.379Z,79.9697265625
2022-10-13T07:38:53.433Z,79.5224609375
2022-10-13T07:39:50.759Z,79.021484375
2022-10-13T07:40:50.766Z,77.978515625
2022-10-13T07:41:51.372Z,77.447265625
2022-10-13T07:42:50.589Z,76.458984375
2022-10-13T07:43:50.562Z,75.7587890625
2022-10-13T07:44:50.480Z,75.0048828125
2022-10-13T07:45:50.839Z,74.5419921875
2022-10-13T07:46:50.578Z,74.2431640625
2022-10-13T07:47:50.378Z,74.23828125
2022-10-13T07:48:50.396Z,74.6845703125
2022-10-13T07:49:53.408Z,74.7041015625
2022-10-13T07:50:53.715Z,74.994140625
2022-10-13T07:51:50.388Z,74.8974609375
2022-10-13T07:52:50.381Z,74.7470703125
2022-10-13T07:53:50.415Z,74.6796875
2022-10-13T07:54:50.769Z,74.8251953125
2022-10-13T07:55:50.786Z,75.3896484375
2022-10-13T07:56:50.472Z,75.859375
2022-10-13T07:57:50.571Z,76.1025390625
2022-10-13T07:58:50.493Z,76.6484375
2022-10-13T07:59:50.488Z,76.958984375
2022-10-13T08:00:56.439Z,77.2099609375
2022-10-13T08:01:50.543Z,77.5146484375
2022-10-13T08:02:50.563Z,77.9453125
2022-10-13T08:03:50.900Z,78.16796875
2022-10-13T08:04:50.485Z,78.3740234375
2022-10-13T08:05:50.846Z,78.1748046875
2022-10-13T08:06:50.530Z,77.853515625
2022-10-13T08:07:53.497Z,77.330078125
2022-10-13T08:08:50.477Z,77.1318359375
2022-10-13T08:09:51.061Z,76.3916015625
2022-10-13T08:10:50.795Z,76.26953125
2022-10-13T08:11:50.371Z,75.927734375
2022-10-13T08:12:50.388Z,75.830078125
2022-10-13T08:13:50.519Z,74.9990234375
2022-10-13T08:14:50.515Z,74.482421875
2022-10-13T08:15:50.796Z,73.52734375
2022-10-13T08:16:53.812Z,72.875
2022-10-13T08:17:50.481Z,73.0849609375
2022-10-13T08:18:50.369Z,73.4306640625
2022-10-13T08:19:50.449Z,73.162109375
2022-10-13T08:20:50.765Z,72.7197265625
2022-10-13T08:21:59.758Z,71.9501953125
2022-10-13T08:22:50.502Z,71.58203125
2022-10-13T08:23:50.524Z,71.4501953125
2022-10-13T08:24:50.843Z,71.4814453125
2022-10-13T08:25:50.770Z,71.259765625
2022-10-13T08:26:50.460Z,71.23046875
2022-10-13T08:27:56.888Z,70.78125
2022-10-13T08:29:09.441Z,70.4541015625
2022-10-13T08:29:50.384Z,70.283203125
2022-10-13T08:30:50.977Z,70.0625
2022-10-13T08:31:50.716Z,69.95703125
2022-10-13T08:32:50.509Z,69.927734375
2022-10-13T08:33:50.376Z,70.51953125
2022-10-13T08:34:50.395Z,71.06640625
2022-10-13T08:35:51.025Z,71.3662109375
2022-10-13T08:36:50.395Z,72.0625
2022-10-13T08:37:50.395Z,72.39453125
2022-10-13T08:38:53.406Z,72.5888671875
2022-10-13T08:39:50.761Z,72.9736328125
2022-10-13T08:40:50.761Z,73.1962890625
2022-10-13T08:41:50.477Z,73.4287109375
2022-10-13T08:42:50.388Z,73.96875
2022-10-13T08:44:33.066Z,74.4599609375
2022-10-13T08:45:21.814Z,74.86328125
2022-10-13T08:45:50.879Z,75.0380859375
2022-10-13T08:46:50.559Z,75.0908203125
2022-10-13T08:47:50.391Z,75.6875
2022-10-13T08:48:50.556Z,75.5634765625
2022-10-13T08:49:57.717Z,75.1591796875
2022-10-13T08:50:50.765Z,74.5537109375
2022-10-13T08:51:50.499Z,73.765625
2022-10-13T08:52:50.402Z,72.79296875
2022-10-13T08:53:50.510Z,71.8916015625
2022-10-13T08:54:50.769Z,71.693359375
2022-10-13T08:55:50.759Z,71.4541015625
2022-10-13T08:56:50.488Z,71.16796875
2022-10-13T08:57:50.511Z,70.93359375
2022-10-13T08:58:50.487Z,70.830078125
2022-10-13T08:59:50.396Z,71.3486328125
2022-10-13T09:00:56.456Z,71.373046875
2022-10-13T09:01:50.534Z,71.2978515625
2022-10-13T09:02:50.504Z,71.1357421875
2022-10-13T09:03:50.397Z,71.5478515625
2022-10-13T09:04:50.528Z,72.09375
2022-10-13T09:05:50.883Z,72.3349609375
2022-10-13T09:06:50.490Z,72.390625
2022-10-13T09:07:50.595Z,72.318359375
2022-10-13T09:08:50.479Z,72.8720703125
2022-10-13T09:09:50.847Z,73.8603515625
2022-10-13T09:10:50.759Z,74.474609375
2022-10-13T09:11:53.635Z,75.0146484375
2022-10-13T09:12:50.615Z,75.3505859375
2022-10-13T09:13:50.560Z,75.662109375
2022-10-13T09:14:50.489Z,75.6142578125
2022-10-13T09:15:50.837Z,75.890625
2022-10-13T09:16:50.593Z,75.765625
2022-10-13T09:17:50.406Z,75.6474609375
2022-10-13T09:18:50.492Z,75.5302734375
2022-10-13T09:19:50.385Z,75.236328125
2022-10-13T09:20:50.992Z,75.2880859375
2022-10-13T09:21:50.465Z,75.5009765625
2022-10-13T09:22:50.399Z,75.2998046875
2022-10-13T09:23:50.392Z,74.7763671875
2022-10-13T09:24:50.831Z,74.4892578125
2022-10-13T09:25:50.868Z,74.50390625
2022-10-13T09:26:50.591Z,74.6025390625
2022-10-13T09:27:53.569Z,74.8671875
2022-10-13T09:28:50.655Z,75.5146484375
2022-10-13T09:29:50.512Z,75.7548828125
2022-10-13T09:30:50.767Z,76.5205078125
2022-10-13T09:31:50.474Z,77.162109375
2022-10-13T09:32:50.387Z,77.498046875
2022-10-13T09:33:50.427Z,78.2197265625
2022-10-13T09:34:50.392Z,78.935546875
2022-10-13T09:35:50.839Z,79.43359375
2022-10-13T09:36:50.705Z,79.6630859375
2022-10-13T09:37:50.549Z,79.705078125
2022-10-13T09:38:53.438Z,79.6943359375
2022-10-13T09:39:50.925Z,80.1982421875
2022-10-13T09:40:50.810Z,80.5185546875
2022-10-13T09:41:50.371Z,80.9853515625
2022-10-13T09:42:50.399Z,81.5634765625
2022-10-13T09:43:50.561Z,81.4462890625
2022-10-13T09:44:50.804Z,81.0712890625
2022-10-13T09:45:50.468Z,80.716796875
2022-10-13T09:46:50.372Z,80.3291015625
2022-10-13T09:47:50.593Z,80.3212890625
2022-10-13T09:48:50.490Z,80.40625
2022-10-13T09:49:56.500Z,80.6259765625
2022-10-13T09:50:50.484Z,80.7294921875
2022-10-13T09:51:50.481Z,81.353515625
2022-10-13T09:52:50.588Z,81.1435546875
2022-10-13T09:53:50.393Z,81.021484375
2022-10-13T09:54:50.762Z,81.3359375
2022-10-13T09:55:50.483Z,81.6845703125
2022-10-13T09:56:50.492Z,82.091796875
2022-10-13T09:57:50.455Z,82.470703125
2022-10-13T09:58:50.385Z,82.3583984375
2022-10-13T09:59:50.910Z,82.7900390625
2022-10-13T10:00:53.556Z,82.9208984375
2022-10-13T10:01:50.576Z,82.9326171875
2022-10-13T10:02:50.530Z,83.1201171875
2022-10-13T10:03:50.422Z,83.2353515625
2022-10-13T10:04:50.892Z,83.0185546875
2022-10-13T10:05:50.476Z,82.4970703125
2022-10-13T10:06:50.427Z,81.919921875
2022-10-13T10:07:50.472Z,81.435546875
2022-10-13T10:09:02.763Z,81.4658203125
2022-10-13T10:09:50.804Z,81.8125
2022-10-13T10:10:50.515Z,81.3232421875
2022-10-13T10:11:53.686Z,81.111328125
2022-10-13T10:12:50.466Z,81.2109375
2022-10-13T10:13:50.492Z,81.251953125
2022-10-13T10:14:50.762Z,81.390625
2022-10-13T10:15:50.498Z,80.9873046875
2022-10-13T10:16:50.516Z,80.8125
2022-10-13T10:17:50.411Z,80.1728515625
2022-10-13T10:18:53.853Z,79.49609375
2022-10-13T10:19:53.777Z,78.6806640625
2022-10-13T10:20:50.491Z,77.7705078125
2022-10-13T10:21:50.507Z,76.99609375
2022-10-13T10:22:53.588Z,76.5703125
2022-10-13T10:23:50.509Z,76.6962890625
2022-10-13T10:24:50.838Z,76.30078125
2022-10-13T10:25:50.584Z,75.9150390625
2022-10-13T10:26:50.408Z,75.591796875
2022-10-13T10:27:50.525Z,74.98828125
2022-10-13T10:28:50.559Z,73.9423828125
2022-10-13T10:29:50.912Z,73.099609375
2022-10-13T10:30:50.427Z,73.181640625
2022-10-13T10:31:50.482Z,73.47265625
2022-10-13T10:32:50.527Z,73.27734375
2022-10-13T10:33:53.387Z,73.451171875
2022-10-13T10:34:50.767Z,73.59765625
2022-10-13T10:35:50.549Z,73.525390625
2022-10-13T10:36:50.474Z,73.00390625
2022-10-13T10:37:50.502Z,72.7001953125
2022-10-13T10:38:50.391Z,72.0869140625
2022-10-13T10:39:50.760Z,71.349609375
2022-10-13T10:40:50.467Z,70.7060546875
2022-10-13T10:41:50.404Z,69.8232421875
2022-10-13T10:42:52.340Z,69.3779296875
2022-10-13T10:43:50.480Z,69.0361328125
2022-10-13T10:44:56.475Z,69.68359375
2022-10-13T10:45:50.549Z,69.67578125
2022-10-13T10:46:50.506Z,69.0595703125
2022-10-13T10:47:50.399Z,69.1806640625
2022-10-13T10:48:50.619Z,68.5302734375
2022-10-13T10:49:50.771Z,68.4677734375
2022-10-13T10:50:50.380Z,68.5107421875
2022-10-13T10:51:50.396Z,68.787109375
2022-10-13T10:52:50.578Z,69.34765625
2022-10-13T10:53:50.422Z,68.8935546875
2022-10-13T10:54:50.835Z,69.208984375
2022-10-13T10:55:53.418Z,69.458984375
2022-10-13T10:56:50.454Z,68.7919921875
2022-10-13T10:57:50.496Z,68.9306640625
2022-10-13T10:58:50.461Z,68.77734375
2022-10-13T10:59:50.841Z,69.32421875
2022-10-13T11:00:50.545Z,69.4375
2022-10-13T11:01:50.552Z,68.9609375
2022-10-13T11:02:50.503Z,68.701171875
2022-10-13T11:03:50.446Z,68.482421875
2022-10-13T11:04:50.837Z,68.0400390625
2022-10-13T11:05:50.573Z,67.353515625
2022-10-13T11:06:53.588Z,66.892578125
2022-10-13T11:07:50.571Z,66.49609375
2022-10-13T11:08:50.504Z,66.52734375
2022-10-13T11:09:51.042Z,66.263671875
2022-10-13T11:10:50.398Z,66.140625
2022-10-13T11:11:50.440Z,65.732421875
2022-10-13T11:12:50.382Z,64.6767578125
2022-10-13T11:13:50.401Z,64.896484375
2022-10-13T11:14:50.882Z,65.076171875
2022-10-13T11:15:50.454Z,65.5283203125
2022-10-13T11:16:50.395Z,66.05078125
2022-10-13T11:17:53.554Z,66.0244140625
2022-10-13T11:18:50.552Z,65.767578125
2022-10-13T11:19:50.877Z,65.9150390625
2022-10-13T11:20:50.483Z,66.365234375
2022-10-13T11:21:50.528Z,66.947265625
2022-10-13T11:22:50.614Z,66.96484375
2022-10-13T11:23:50.526Z,66.6435546875
2022-10-13T11:24:50.843Z,66.4111328125
2022-10-13T11:25:50.599Z,65.66015625
2022-10-13T11:26:50.492Z,65.07421875
2022-10-13T11:27:50.488Z,64.869140625
2022-10-13T11:28:53.590Z,65.1806640625
2022-10-13T11:29:50.761Z,65.6943359375
2022-10-13T11:30:50.685Z,66.2724609375
2022-10-13T11:31:50.440Z,66.2333984375
2022-10-13T11:32:50.511Z,66.1611328125
2022-10-13T11:33:50.457Z,66.5927734375
2022-10-13T11:34:50.759Z,66.7109375
2022-10-13T11:35:50.384Z,67.2412109375
2022-10-13T11:36:50.606Z,67.4912109375
2022-10-13T11:38:05.626Z,66.8623046875
2022-10-13T11:38:50.544Z,66.4638671875
2022-10-13T11:39:56.571Z,65.8203125
2022-10-13T11:40:50.574Z,65.0146484375
2022-10-13T11:41:50.464Z,63.927734375
2022-10-13T11:42:52.344Z,63.7275390625
2022-10-13T11:43:50.559Z,63.041015625
2022-10-13T11:44:50.843Z,62.5830078125
2022-10-13T11:45:50.527Z,62.3583984375
2022-10-13T11:46:50.383Z,62.20703125
2022-10-13T11:47:50.412Z,62.2578125
2022-10-13T11:48:50.492Z,62.486328125
2022-10-13T11:49:51.667Z,62.580078125
2022-10-13T11:50:53.423Z,61.9599609375
2022-10-13T11:51:50.771Z,61.37890625
2022-10-13T11:52:50.555Z,60.91015625
2022-10-13T11:53:50.400Z,60.8212890625
2022-10-13T11:54:50.758Z,60.326171875
2022-10-13T11:55:50.390Z,60.1025390625
2022-10-13T11:56:50.391Z,60.1259765625
2022-10-13T11:57:50.385Z,60.8876953125
2022-10-13T11:58:50.477Z,61.607421875
2022-10-13T11:59:50.883Z,62.2626953125
2022-10-13T12:00:50.408Z,62.51953125
2022-10-13T12:01:53.403Z,62.9599609375
2022-10-13T12:02:50.549Z,62.6279296875
2022-10-13T12:03:50.474Z,62.234375
2022-10-13T12:04:50.836Z,61.5078125
2022-10-13T12:05:50.481Z,61.548828125
2022-10-13T12:06:50.493Z,61.1669921875
2022-10-13T12:07:50.447Z,60.095703125
2022-10-13T12:08:50.375Z,60.1259765625
2022-10-13T12:09:50.834Z,60.7978515625
2022-10-13T12:10:50.480Z,61.232421875
2022-10-13T12:11:50.386Z,60.7099609375
2022-10-13T12:12:53.431Z,60.615234375
2022-10-13T12:13:50.490Z,61.6123046875
2022-10-13T12:14:50.882Z,62.822265625
2022-10-13T12:15:50.468Z,63.71484375
2022-10-13T12:16:50.487Z,64.26171875
2022-10-13T12:17:50.521Z,64.56640625
2022-10-13T12:18:50.394Z,65.0234375
2022-10-13T12:19:50.768Z,65.109375
2022-10-13T12:20:50.399Z,64.900390625
2022-10-13T12:21:50.381Z,65.6513671875
2022-10-13T12:22:50.654Z,66.380859375
2022-10-13T12:23:53.501Z,67.087890625
2022-10-13T12:24:50.771Z,67.560546875
2022-10-13T12:25:50.585Z,67.484375
2022-10-13T12:26:50.598Z,67.5166015625
2022-10-13T12:27:50.616Z,67.5283203125
2022-10-13T12:28:50.849Z,67.5625
2022-10-13T12:29:50.390Z,67.443359375
2022-10-13T12:30:50.394Z,67.2041015625
2022-10-13T12:31:50.412Z,67.1357421875
2022-10-13T12:32:50.397Z,67.314453125
2022-10-13T12:33:50.765Z,67.2060546875
2022-10-13T12:34:53.475Z,67.3037109375